Rosa Maersk — OVST2 — position and weather

sailwx.info

Track history (hours):
 
Tides and Currents Weather Stations Pressure Air Temp Water Temp Dewpoint Dewpoint Depression Visibility Wind Speed Wind Dir Waves Ship Positions

Rosa Maersk

Last reported at 2016-May-03 10:30 UTC. Time now 2016-May-04 11:40 UTC.
Position N 45°06' E 036°30'.

Length 172 m; draft 7.1 m.

Type: Ship. MMSI: 220288000.

Date/timePositionNaut miles runAvg speedWind from/ knotsBaromVisibWave heightAir tempDewpointWater temp
2016-May-03 10:30N 45°06' E 036°30'  
2016-Apr-30 01:34N 40°59' E 028°60'1010.3
2016-Apr-30 00:34N 40°50' E 028°54'1 0.2
2016-Apr-29 16:15N 40°49' E 028°55'2 0.3
2016-Apr-29 11:20N 40°48' E 028°53'8 9.7
2016-Apr-29 10:33N 40°45' E 028°44'14411.1
2016-Apr-28 21:33N 39°49' E 025°50'10 8.5
2016-Apr-28 20:21N 39°40' E 025°44'  
2016-Apr-26 14:33N 35°50' E 014°40'3 0.3
2016-Apr-26 03:33N 35°49' E 014°36'6 6.1
2016-Apr-26 02:33N 35°50' E 014°44'8 0.4
2016-Apr-25 08:13N 35°50' E 014°54'4 5.9
2016-Apr-25 07:32N 35°54' E 014°53'2211.0
2016-Apr-25 05:34N 36°10' E 014°35'1312.7
2016-Apr-25 04:33N 36°17' E 014°21'1313.1
2016-Apr-25 03:33N 36°22' E 014°06'1312.9
2016-Apr-25 02:33N 36°27' E 013°52'25812.8
2016-Apr-24 06:24N 38°51' E 009°22'1113.4
2016-Apr-24 05:33N 38°59' E 009°12'9 9.3
2016-Apr-24 04:31N 39°05' E 009°02'0 0.0
2016-Apr-24 03:31N 39°05' E 009°02'0 0.0
2016-Apr-24 02:31N 39°05' E 009°02'0 0.0
2016-Apr-24 01:31N 39°05' E 009°02'0 0.0
2016-Apr-24 00:31N 39°05' E 009°02'0 0.0
2016-Apr-23 23:31N 39°05' E 009°02'0 0.0
2016-Apr-23 22:31N 39°05' E 009°02'0 0.0
2016-Apr-23 21:31N 39°05' E 009°02'0 0.0
2016-Apr-23 20:31N 39°05' E 009°02'0 0.0
2016-Apr-23 19:31N 39°05' E 009°02'0 0.0
2016-Apr-23 18:31N 39°05' E 009°02'0 0.0
2016-Apr-23 17:31N 39°05' E 009°02'0 0.0
2016-Apr-23 16:31N 39°05' E 009°02'0 0.0
2016-Apr-23 15:31N 39°05' E 009°02'0 0.0
2016-Apr-23 14:31N 39°05' E 009°02'0 0.0
2016-Apr-23 13:31N 39°05' E 009°02'0 0.0
2016-Apr-23 12:31N 39°05' E 009°02'0 0.0
2016-Apr-23 11:31N 39°05' E 009°02'0 0.0
2016-Apr-23 10:31N 39°05' E 009°02'  
Track history (hours):
 
Tides and Currents Weather Stations Pressure Air Temp Water Temp Dewpoint Dewpoint Depression Visibility Wind Speed Wind Dir Waves Ship Positions

Rosa Maersk

Last reported at 2016-May-03 10:30 UTC. Time now 2016-May-04 11:40 UTC.
Position N 45°06' E 036°30'.

Length 172 m; draft 7.1 m.

Type: Ship. MMSI: 220288000.

Date/timePositionNaut miles runAvg speedWind from/ knotsBaromVisibWave heightAir tempDewpointWater temp
2016-May-03 10:30N 45°06' E 036°30'  
2016-Apr-30 01:34N 40°59' E 028°60'1010.3
2016-Apr-30 00:34N 40°50' E 028°54'1 0.2
2016-Apr-29 16:15N 40°49' E 028°55'2 0.3
2016-Apr-29 11:20N 40°48' E 028°53'8 9.7
2016-Apr-29 10:33N 40°45' E 028°44'14411.1
2016-Apr-28 21:33N 39°49' E 025°50'10 8.5
2016-Apr-28 20:21N 39°40' E 025°44'  
2016-Apr-26 14:33N 35°50' E 014°40'3 0.3
2016-Apr-26 03:33N 35°49' E 014°36'6 6.1
2016-Apr-26 02:33N 35°50' E 014°44'8 0.4
2016-Apr-25 08:13N 35°50' E 014°54'4 5.9
2016-Apr-25 07:32N 35°54' E 014°53'2211.0
2016-Apr-25 05:34N 36°10' E 014°35'1312.7
2016-Apr-25 04:33N 36°17' E 014°21'1313.1
2016-Apr-25 03:33N 36°22' E 014°06'1312.9
2016-Apr-25 02:33N 36°27' E 013°52'25812.8
2016-Apr-24 06:24N 38°51' E 009°22'1113.4
2016-Apr-24 05:33N 38°59' E 009°12'9 9.3
2016-Apr-24 04:31N 39°05' E 009°02'0 0.0
2016-Apr-24 03:31N 39°05' E 009°02'0 0.0
2016-Apr-24 02:31N 39°05' E 009°02'0 0.0
2016-Apr-24 01:31N 39°05' E 009°02'0 0.0
2016-Apr-24 00:31N 39°05' E 009°02'0 0.0
2016-Apr-23 23:31N 39°05' E 009°02'0 0.0
2016-Apr-23 22:31N 39°05' E 009°02'0 0.0
2016-Apr-23 21:31N 39°05' E 009°02'0 0.0
2016-Apr-23 20:31N 39°05' E 009°02'0 0.0
2016-Apr-23 19:31N 39°05' E 009°02'0 0.0
2016-Apr-23 18:31N 39°05' E 009°02'0 0.0
2016-Apr-23 17:31N 39°05' E 009°02'0 0.0
2016-Apr-23 16:31N 39°05' E 009°02'0 0.0
2016-Apr-23 15:31N 39°05' E 009°02'0 0.0
2016-Apr-23 14:31N 39°05' E 009°02'0 0.0
2016-Apr-23 13:31N 39°05' E 009°02'0 0.0
2016-Apr-23 12:31N 39°05' E 009°02'0 0.0
2016-Apr-23 11:31N 39°05' E 009°02'0 0.0
2016-Apr-23 10:31N 39°05' E 009°02'  

Dump ship's entire track history